Terminal Aerodrome Forecast
Issued by NWS Charleston, WV

Current Version | Previous Version | Text Only | Print | Product List | Glossary On
Versions: 1 2 3 4 5 6 7 8 9 10 11 12 13 14 15 16 17 18 19 20 21 22 23 24
297
FTUS41 KRLX 210541
TAFBKW
TAF
KBKW 210541Z 2106/2206 15008KT P6SM SKC
     FM211500 21010KT P6SM FEW030 FEW250
     FM211800 22011G17KT P6SM FEW035
     FM212200 21008KT P6SM SCT025
     FM220100 22005KT P6SM BKN025
     FM220200 23005KT P6SM BKN015
     FM220400 25005KT P6SM BKN010=

USA.gov is the U.S. government's official web portal to all federal, state and local government web resources and services.